ADDS METAR Data INFO
IDs: Format: Raw Decoded Include TAF

Data at: 2110 UTC 19 Jul 2018

KSOW 192055Z AUTO VRB04KT 10SM CLR 29/10 A3027 RMK AO2 LTG DSNT E AND W
KSOW 192035Z AUTO 09006KT 10SM CLR 29/11 A3028 RMK AO2 LTG DSNT E AND SE AND W
KSOW 192015Z AUTO VRB06KT 10SM CLR 29/10 A3028 RMK AO2 LTG DSNT N AND SE AND W
KSOW 191955Z AUTO 02004G10KT 10SM CLR 30/10 A3029 RMK AO2 LTG DSNT SE AND W
KSOW 191935Z AUTO VRB04KT 10SM CLR 29/10 A3030 RMK AO2 LTG DSNT SE
KSOW 191915Z AUTO 30003KT 10SM CLR 29/10 A3031 RMK AO2 LTG DSNT SE
KSOW 191855Z AUTO VRB05KT 10SM FEW055 FEW070 FEW110 28/10 A3032 RMK AO2 LTG DSNT SE
KSOW 191835Z AUTO 00000KT 10SM FEW060 FEW070 FEW110 28/12 A3032 RMK AO2
KSOW 191815Z AUTO 26004KT 10SM CLR 28/12 A3033 RMK AO2
KSOW 191755Z AUTO 34004KT 10SM CLR 27/13 A3034 RMK AO2
KSOW 191735Z AUTO 00000KT 10SM CLR 27/11 A3034 RMK AO2
KSOW 191715Z AUTO VRB04KT 9SM CLR 26/14 A3034 RMK AO2
KSOW 191655Z AUTO VRB03KT 10SM CLR 26/14 A3034 RMK AO2
KSOW 191635Z AUTO 00000KT 10SM CLR 25/13 A3034 RMK AO2
KSOW 191615Z AUTO 00000KT 10SM CLR 25/13 A3034 RMK AO2
KSOW 191555Z AUTO 00000KT 9SM CLR 24/13 A3034 RMK AO2
KSOW 191535Z AUTO VRB03KT 10SM CLR 24/12 A3034 RMK AO2
KSOW 191515Z AUTO 00000KT 10SM CLR 24/13 A3034 RMK AO2
KSOW 191455Z AUTO 00000KT 10SM CLR 24/13 A3034 RMK AO2
KSOW 191435Z AUTO 00000KT 10SM FEW120 22/15 A3034 RMK AO2
KSOW 191415Z AUTO 19004KT 10SM CLR 20/15 A3034 RMK AO2
KSOW 191355Z AUTO 22003KT 10SM CLR 18/14 A3034 RMK AO2
KSOW 191335Z AUTO 00000KT 10SM CLR 17/14 A3034 RMK AO2
KSOW 191315Z AUTO 15004KT 10SM CLR 17/13 A3033 RMK AO2
KSOW 191255Z AUTO 21004KT 10SM CLR 16/13 A3033 RMK AO2
KSOW 191235Z AUTO 00000KT 10SM CLR 15/14 A3033 RMK AO2
KSOW 191215Z AUTO 00000KT 10SM FEW120 15/13 A3032 RMK AO2
KSOW 191155Z AUTO 00000KT 10SM BKN120 16/12 A3032 RMK AO2
KSOW 191135Z AUTO 17005KT 10SM BKN120 16/13 A3032 RMK AO2
KSOW 191115Z AUTO 00000KT 10SM BKN110 16/13 A3032 RMK AO2
KSOW 191055Z AUTO 00000KT 10SM CLR 16/13 A3032 RMK AO2
KSOW 191035Z AUTO 16003KT 10SM CLR 16/13 A3031 RMK AO2
KSOW 191015Z AUTO 16006KT 10SM CLR 17/13 A3031 RMK AO2
KSOW 190955Z AUTO 18004KT 10SM CLR 17/13 A3031 RMK AO2
KSOW 190935Z AUTO 20005KT 10SM CLR 17/13 A3031 RMK AO2
KSOW 190915Z AUTO 26004KT 10SM CLR 17/14 A3031 RMK AO2
KSOW 190855Z AUTO 00000KT 10SM SCT120 17/14 A3030 RMK AO2
KSOW 190835Z AUTO 22003KT 10SM BKN120 17/14 A3029 RMK AO2
KSOW 190815Z AUTO 28004KT 10SM FEW120 17/14 A3029 RMK AO2
KSOW 190755Z AUTO 17008KT 10SM CLR 19/13 A3029 RMK AO2
KSOW 190735Z AUTO 18009KT 10SM CLR 18/13 A3028 RMK AO2
KSOW 190715Z AUTO 17009KT 10SM CLR 17/14 A3028 RMK AO2
KSOW 190655Z AUTO 17010KT 10SM CLR 18/13 A3027 RMK AO2
KSOW 190635Z AUTO 14007KT 10SM CLR 17/15 A3028 RMK AO2
KSOW 190615Z AUTO 17004KT 10SM CLR 17/14 A3030 RMK AO2
KSOW 190555Z AUTO 09008G13KT 10SM -RA FEW002 SCT027 BKN047 17/14 A3032 RMK AO2 P0008
KSOW 190535Z AUTO 06012G18KT 8SM -RA SCT003 BKN029 OVC070 17/13 A3036 RMK AO2
KSOW 190515Z AUTO 08010KT 4SM RA 18/13 A3039 RMK AO2 LTG DSNT SE
KSOW 190455Z AUTO 12007KT 5SM -RA 17/14 A3040 RMK AO2 P0012
KSOW 190435Z AUTO 11019KT 3SM VCTS RA FEW004 BKN022 OVC047 17/14 A3038 RMK AO2 LTG DSNT SE-W
KSOW 190415Z AUTO 17004KT 4SM -TSRA FEW003 BKN022 OVC047 17/15 A3039 RMK AO2 LTG DSNT ALQDS
KSOW 190355Z AUTO 29006KT 2 1/2SM TSRA FEW003 SCT021 BKN036 16/16 A3042 RMK AO2 LTG DSNT ALQDS P0008
KSOW 190335Z AUTO 05009G15KT 3SM -TSRA FEW020 SCT033 OVC047 16/15 A3040 RMK AO2 LTG DSNT ALQDS
KSOW 190315Z AUTO 04009KT 4SM -TSRA FEW003 SCT020 BKN032 17/16 A3040 RMK AO2 LTG DSNT ALQDS
KSOW 190255Z AUTO 05014KT 4SM +TSRA SCT004 BKN022 OVC050 17/16 A3038 RMK AO2 LTG DSNT ALQDS P0008
KSOW 190235Z AUTO 08020G26KT 5SM VCTS RA FEW007 SCT048 BKN065 19/15 A3035 RMK AO2 LTG DSNT NE AND E
KSOW 190215Z AUTO 32005KT 9SM VCTS FEW090 BKN110 24/12 A3032 RMK AO2 LTG DSNT N-E
KSOW 190155Z AUTO 26009KT 9SM VCTS BKN110 25/13 A3030 RMK AO2 LTG DSNT ALQDS
KSOW 190135Z AUTO 28009KT 10SM BKN100 BKN120 26/12 A3029 RMK AO2 LTG DSNT N-SE
KSOW 190115Z AUTO 31012KT 10SM VCTS BKN095 27/12 A3028 RMK AO2 LTG DSNT NE AND E AND W
KSOW 190055Z AUTO 23004KT 9SM VCTS BKN100 28/09 A3027 RMK AO2 LTG DSNT ALQDS
KSOW 190035Z AUTO 22008KT 10SM VCTS FEW120 28/08 A3027 RMK AO2 LTG DSNT ALQDS
KSOW 190015Z AUTO 18006KT 10SM FEW120 28/09 A3027 RMK AO2 LTG DSNT NE AND E AND SW
KSOW 182355Z AUTO 17008KT 10SM FEW110 28/09 A3027 RMK AO2 LTG DSNT NE AND E AND W
KSOW 182335Z AUTO 17008KT 10SM SCT110 29/10 A3027 RMK AO2 LTG DSNT E AND W
KSOW 182315Z AUTO 18012KT 10SM FEW100 29/11 A3027 RMK AO2 LTG DSNT NE AND E AND W
KSOW 182255Z AUTO 17010KT 10SM SCT100 28/11 A3028 RMK AO2 LTG DSNT NE AND E AND W
KSOW 182235Z AUTO 17014KT 10SM FEW110 28/11 A3029 RMK AO2
KSOW 182215Z AUTO 18012KT 10SM CLR 26/13 A3030 RMK AO2 LTG DSNT W
KSOW 182155Z AUTO 19011KT 10SM FEW110 25/12 A3031 RMK AO2
KSOW 182135Z AUTO 19013KT 10SM FEW037 FEW095 FEW120 21/14 A3031 RMK AO2
KSOW 182115Z AUTO 18017G22KT 10SM -RA FEW090 SCT120 22/13 A3032 RMK AO2
KSOW 182055Z AUTO 17016KT 9SM VCTS BKN085 BKN120 24/12 A3032 RMK AO2 LTG DSNT ALQDS
KSOW 182035Z AUTO 17010G19KT 10SM TS OVC080 26/12 A3032 RMK AO2 LTG DSNT SE-SW
KSOW 182015Z AUTO 28007G13KT 10SM VCTS OVC075 28/10 A3032 RMK AO2 LTG DSNT SE AND S
KSOW 181955Z AUTO 27006KT 10SM BKN080 BKN110 29/10 A3033 RMK AO2
KSOW 181935Z AUTO 32006KT 10SM CLR 29/10 A3033 RMK AO2
KSOW 181915Z AUTO VRB04G12KT 10SM CLR 29/09 A3034 RMK AO2
KSOW 181855Z AUTO 31006G16KT 10SM CLR 29/10 A3035 RMK AO2
KSOW 181835Z AUTO 00000KT 10SM CLR 28/10 A3036 RMK AO2
KSOW 181815Z AUTO 00000KT 10SM CLR 28/10 A3037 RMK AO2
KSOW 181755Z AUTO VRB04KT 10SM CLR 28/10 A3037 RMK AO2
KSOW 181735Z AUTO 22007KT 160V250 10SM CLR 27/10 A3038 RMK AO2
KSOW 181715Z AUTO 15006KT 10SM CLR 27/10 A3038 RMK AO2
KSOW 181655Z AUTO 18006G12KT 10SM CLR 27/10 A3038 RMK AO2
KSOW 181635Z AUTO 20007G12KT 10SM CLR 27/10 A3038 RMK AO2
KSOW 181615Z AUTO 18010KT 10SM CLR 26/10 A3038 RMK AO2
KSOW 181555Z AUTO 21008KT 10SM CLR 26/11 A3038 RMK AO2
KSOW 181535Z AUTO 19006G12KT 10SM CLR 25/11 A3038 RMK AO2
KSOW 181515Z AUTO 18008KT 10SM CLR 25/11 A3038 RMK AO2
KSOW 181455Z AUTO 19009KT 10SM CLR 24/11 A3037 RMK AO2
KSOW 181435Z AUTO 18008KT 10SM CLR 23/11 A3037 RMK AO2
KSOW 181415Z AUTO 18007KT 10SM CLR 22/12 A3037 RMK AO2
KSOW 181355Z AUTO 18007KT 10SM CLR 20/13 A3036 RMK AO2
KSOW 181335Z AUTO 19005KT 10SM CLR 18/13 A3036 RMK AO2
KSOW 181315Z AUTO 19003KT 9SM CLR 17/13 A3036 RMK AO2
KSOW 181255Z AUTO 17003KT 10SM CLR 16/13 A3036 RMK AO2
KSOW 181235Z AUTO 17003KT 10SM CLR 16/13 A3036 RMK AO2
KSOW 181215Z AUTO 19003KT 10SM CLR 16/13 A3037 RMK AO2
KSOW 181155Z AUTO 16004KT 10SM CLR 16/13 A3037 RMK AO2
KSOW 181135Z AUTO 00000KT 10SM CLR 17/14 A3037 RMK AO2
KSOW 181115Z AUTO 00000KT 10SM FEW075 17/14 A3037 RMK AO2
KSOW 181055Z AUTO 00000KT 10SM BKN070 18/14 A3037 RMK AO2 LTG DSNT N
KSOW 181035Z AUTO 00000KT 10SM BKN070 BKN080 18/14 A3037 RMK AO2
KSOW 181015Z AUTO 00000KT 10SM BKN070 OVC080 18/13 A3037 RMK AO2
KSOW 180955Z AUTO 31007G12KT 10SM BKN080 OVC110 18/13 A3037 RMK AO2
KSOW 180935Z AUTO 26006KT 10SM SCT120 18/13 A3036 RMK AO2
KSOW 180915Z AUTO 00000KT 10SM CLR 19/12 A3035 RMK AO2